Latest Weather Observations for Trepell

IDQ60801

Issued at 7:33 pm EST Monday 25 July 2016 (issued every 30 minutes, with the page automatically refreshed every 10 minutes)

About weather observations | Map of weather stations | Latest weather observations for QLD | Other Formats
Station Details ID: 037036 Name: TREPELL AIRPORT Lat: -21.84 Lon: 140.89 Height: 266.2 m
Data from the previous 72 hours. | See also: Recent months at Trepell
Date/Time
EST
Temp
°C
App
Temp
°C
Dew
Point
°C
Rel
Hum
%
Delta-T
°C
Wind Press
QNH
hPa
Press
MSL
hPa
Rain since
9am
mm
Dir  Spd
km/h
Gust
km/h
Spd
kts
Gust
kts
25/07:30pm 16.5 12.6 3.6 42 6.0 SSE 13 17 7 9 1019.7 1019.3 0.0
25/07:00pm 17.4 13.1 3.3 39 6.6 SE 15 17 8 9 1019.3 1018.9 0.0
25/06:30pm 18.0 13.7 3.1 37 7.0 SE 15 17 8 9 1019.2 1018.8 0.0
25/06:00pm 19.1 14.3 2.5 33 7.7 SSE 17 20 9 11 1019.1 1018.7 0.0
25/05:30pm 20.0 14.6 1.0 28 8.7 SSE 19 24 10 13 1019.0 1018.6 0.0
25/05:00pm 20.5 15.6 1.9 29 8.7 SSE 17 24 9 13 1018.9 1018.5 0.0
25/04:30pm 20.5 15.5 1.4 28 8.8 S 17 24 9 13 1018.8 1018.4 0.0
25/04:00pm 20.6 15.3 2.0 29 8.7 SSE 19 28 10 15 1018.7 1018.3 0.0
25/03:30pm 20.4 15.1 1.8 29 8.7 SSE 19 24 10 13 1018.8 1018.4 0.0
25/03:00pm 20.6 15.1 2.0 29 8.7 SSE 20 28 11 15 1019.1 1018.7 0.0
25/02:30pm 20.9 15.8 3.2 31 8.5 SSE 19 30 10 16 1019.4 1019.0 0.0
25/02:00pm 20.0 14.8 3.3 33 8.0 SSE 20 32 11 17 1019.7 1019.3 0.0
25/01:30pm 20.0 14.5 4.1 35 7.7 SSE 22 30 12 16 1020.2 1019.8 0.0
25/01:00pm 19.6 14.4 3.7 35 7.6 SSE 20 26 11 14 1020.7 1020.3 0.0
25/12:30pm 19.1 14.1 4.5 38 7.1 SSE 20 26 11 14 1021.4 1021.0 0.0
25/12:00pm 19.0 14.0 4.4 38 7.1 SSE 20 30 11 16 1021.6 1021.2 0.0
25/11:30am 18.3 12.4 3.8 38 6.9 SSE 24 32 13 17 1021.9 1021.5 0.0
25/11:00am 17.8 11.6 4.4 41 6.4 SE 26 32 14 17 1022.1 1021.7 0.0
25/10:30am 17.3 11.0 3.9 41 6.4 SE 26 33 14 18 1022.3 1021.9 0.0
25/10:00am 16.8 10.9 3.8 42 6.1 SSE 24 32 13 17 1022.2 1021.8 0.0
25/09:30am 16.0 9.8 4.1 45 5.6 SE 26 33 14 18 1022.1 1021.7 0.0
25/09:00am 15.2 9.6 3.7 46 5.3 SSE 22 28 12 15 1021.9 1021.5 0.0
25/08:30am 14.1 9.6 4.4 52 4.5 S 17 24 9 13 1021.7 1021.3 0.0
25/08:00am 12.9 9.3 4.8 58 3.8 S 13 17 7 9 1021.5 1021.1 0.0
25/07:30am 11.4 8.3 5.5 67 2.8 S 11 13 6 7 1021.0 1020.6 0.0
25/07:00am 11.5 8.0 5.6 67 2.8 SSW 13 17 7 9 1020.8 1020.4 0.0
25/06:30am 11.2 8.1 5.7 69 2.6 SSW 11 13 6 7 1020.4 1020.0 0.0
25/06:00am 11.5 8.5 5.8 68 2.7 SW 11 13 6 7 1020.1 1019.7 0.0
25/05:30am 11.6 8.9 5.7 67 2.8 SSW 9 11 5 6 1019.9 1019.4 0.0
25/05:00am 11.8 8.8 6.1 68 2.7 SSW 11 13 6 7 1019.7 1019.3 0.0
25/04:30am 12.2 9.3 6.3 67 2.8 SSW 11 13 6 7 1019.7 1019.3 0.0
25/04:00am 12.4 9.8 6.2 66 3.0 S 9 11 5 6 1019.5 1019.1 0.0
25/03:30am 12.9 10.0 6.5 65 3.1 S 11 13 6 7 1019.7 1019.3 0.0
25/03:00am 13.1 9.9 6.7 65 3.1 SSW 13 15 7 8 1019.9 1019.4 0.0
25/02:30am 13.3 10.5 6.9 65 3.1 SSW 11 13 6 7 1020.0 1019.5 0.0
25/02:00am 14.1 11.0 7.2 63 3.4 S 13 17 7 9 1020.1 1019.7 0.0
25/01:30am 14.7 11.2 7.0 60 3.8 S 15 19 8 10 1020.2 1019.8 0.0
25/01:00am 14.4 11.2 7.0 61 3.7 SSW 13 15 7 8 1020.1 1019.7 0.0
25/12:30am 15.0 12.2 7.1 59 3.9 S 11 15 6 8 1020.1 1019.7 0.0
25/12:00am 15.0 11.9 7.1 59 3.9 SSW 13 15 7 8 1020.1 1019.7 0.0
 
Date/Time
EST
Temp
°C
App
Temp
°C
Dew
Point
°C
Rel
Hum
%
Delta-T
°C
Wind Press
QNH
hPa
Press
MSL
hPa
Rain since
9am
mm
Dir  Spd
km/h
Gust
km/h
Spd
kts
Gust
kts
24/11:30pm 15.3 12.5 6.8 57 4.2 S 11 13 6 7 1020.1 1019.7 0.0
24/11:00pm 15.8 13.4 6.8 55 4.5 S 9 11 5 6 1020.3 1019.9 0.0
24/10:30pm 16.6 13.7 6.7 52 4.9 S 11 15 6 8 1020.3 1019.9 0.0
24/10:00pm 17.1 13.5 6.6 50 5.2 SSE 15 17 8 9 1020.1 1019.7 0.0
24/09:30pm 18.1 14.8 6.6 47 5.8 SSE 13 17 7 9 1019.9 1019.4 0.0
24/09:00pm 17.6 14.9 7.4 51 5.2 SE 11 17 6 9 1019.5 1019.1 0.0
24/08:30pm 17.9 15.0 6.4 47 5.8 SSE 11 13 6 7 1019.2 1018.8 0.0
24/08:00pm 19.1 15.8 6.6 44 6.3 SSE 13 15 7 8 1018.7 1018.3 0.0
24/07:30pm 19.8 16.1 6.5 42 6.8 SSE 15 19 8 10 1018.2 1017.8 0.0
24/07:00pm 20.1 16.3 5.7 39 7.2 SSE 15 17 8 9 1017.7 1017.3 0.0
24/06:30pm 21.5 17.9 5.0 34 8.2 S 13 17 7 9 1017.4 1017.0 0.0
24/06:00pm 22.7 17.6 4.2 30 9.2 S 20 26 11 14 1016.9 1016.5 0.0
24/05:30pm 23.9 18.9 4.8 29 9.7 S 20 28 11 15 1016.6 1016.1 0.0
24/05:00pm 24.6 19.7 4.9 28 10.0 S 20 28 11 15 1016.2 1015.7 0.0
24/04:30pm 24.6 19.3 4.9 28 10.0 SSW 22 28 12 15 1016.1 1015.6 0.0
24/04:00pm 25.1 20.2 5.3 28 10.2 S 20 24 11 13 1015.8 1015.4 0.0
24/03:30pm 25.2 20.8 4.9 27 10.4 S 17 24 9 13 1016.0 1015.5 0.0
24/03:00pm 25.2 21.8 5.9 29 10.0 S 13 20 7 11 1016.1 1015.6 0.0
24/02:30pm 24.6 20.5 4.4 27 10.2 S 15 19 8 10 1016.6 1016.1 0.0
24/02:00pm 24.4 20.4 4.7 28 10.0 S 15 20 8 11 1017.0 1016.6 0.0
24/01:30pm 23.7 20.4 4.6 29 9.6 S 11 15 6 8 1017.2 1016.8 0.0
24/01:00pm 23.1 19.3 4.1 29 9.4 SSW 13 17 7 9 1017.9 1017.5 0.0
24/12:30pm 22.1 18.8 4.7 32 8.7 SSE 11 17 6 9 1018.5 1018.1 0.0
24/12:00pm 21.7 19.1 4.3 32 8.6 SE 7 15 4 8 1018.9 1018.5 0.0
24/11:30am 20.7 16.7 3.0 31 8.5 SSE 13 19 7 10 1019.4 1019.0 0.0
24/11:00am 19.7 15.0 3.0 33 7.9 S 17 22 9 12 1020.0 1019.5 0.0
24/10:30am 19.0 14.6 2.8 34 7.6 S 15 20 8 11 1020.1 1019.7 0.0
24/10:00am 17.8 13.3 4.4 41 6.4 SSE 17 20 9 11 1020.1 1019.7 0.0
24/09:30am 16.6 12.3 5.3 47 5.5 S 17 22 9 12 1020.1 1019.7 0.0
24/09:00am 16.0 13.0 5.9 51 4.9 S 11 15 6 8 1019.5 1019.1 0.0
24/08:30am 14.6 12.6 6.4 58 4.0 SW 6 9 3 5 1019.1 1018.7 0.0
24/08:00am 13.4 10.5 6.7 64 3.3 SSW 11 13 6 7 1018.9 1018.5 0.0
24/07:30am 12.3 9.9 7.2 71 2.5 WSW 9 11 5 6 1018.4 1018.0 0.0
24/07:00am 12.4 10.4 7.1 70 2.6 W 7 7 4 4 1017.8 1017.4 0.0
24/06:30am 12.3 10.3 7.0 70 2.6 WSW 7 9 4 5 1017.8 1017.4 0.0
24/06:00am 12.5 10.5 7.2 70 2.6 SW 7 9 4 5 1017.4 1017.0 0.0
24/05:30am 12.5 9.7 6.8 68 2.8 SW 11 11 6 6 1017.1 1016.7 0.0
24/05:00am 12.7 9.8 6.5 66 3.0 SW 11 13 6 7 1017.1 1016.7 0.0
24/04:30am 12.7 9.9 7.0 68 2.8 SW 11 13 6 7 1017.0 1016.6 0.0
24/04:00am 13.0 10.6 7.2 68 2.8 SW 9 9 5 5 1016.7 1016.2 0.0
24/03:30am 13.1 10.3 7.1 67 2.9 SSW 11 13 6 7 1016.7 1016.2 0.0
24/03:00am 13.2 10.6 7.6 69 2.8 SW 11 13 6 7 1016.6 1016.1 0.0
24/02:30am 13.6 11.4 8.0 69 2.8 SW 9 11 5 6 1016.5 1016.0 0.0
24/02:00am 13.9 11.3 7.7 66 3.1 SSW 11 13 6 7 1016.7 1016.2 0.0
24/01:30am 14.2 12.0 7.9 66 3.2 SSW 9 11 5 6 1016.9 1016.5 0.0
24/01:00am 14.4 11.9 8.1 66 3.2 SSW 11 13 6 7 1016.8 1016.4 0.0
24/12:30am 14.5 12.4 8.2 66 3.2 SSW 9 11 5 6 1016.8 1016.4 0.0
24/12:00am 14.8 12.3 8.3 65 3.3 SSW 11 11 6 6 1017.1 1016.7 0.0
 
Date/Time
EST
Temp
°C
App
Temp
°C
Dew
Point
°C
Rel
Hum
%
Delta-T
°C
Wind Press
QNH
hPa
Press
MSL
hPa
Rain since
9am
mm
Dir  Spd
km/h
Gust
km/h
Spd
kts
Gust
kts
23/11:30pm 15.1 12.7 8.6 65 3.3 SSW 11 13 6 7 1017.2 1016.8 0.0
23/11:00pm 15.2 12.9 8.9 66 3.3 SSW 11 13 6 7 1017.2 1016.8 0.0
23/10:30pm 15.9 14.4 9.1 64 3.5 SSW 7 9 4 5 1017.0 1016.6 0.0
23/10:00pm 16.1 14.6 9.1 63 3.7 S 7 11 4 6 1017.1 1016.7 0.0
23/09:30pm 16.2 13.9 8.9 62 3.8 SSW 11 13 6 7 1017.3 1016.9 0.0
23/09:00pm 17.0 15.4 8.7 58 4.3 S 7 9 4 5 1017.3 1016.9 0.0
23/08:30pm 17.9 15.7 7.9 52 5.2 S 9 13 5 7 1017.1 1016.7 0.0
23/08:00pm 18.7 15.7 7.8 49 5.6 S 13 15 7 8 1016.9 1016.5 0.0
23/07:30pm 19.3 16.3 7.7 47 6.0 S 13 17 7 9 1016.8 1016.4 0.0
23/07:00pm 20.3 16.8 7.3 43 6.7 S 15 20 8 11 1016.5 1016.0 0.0
23/06:30pm 21.3 17.4 7.2 40 7.3 S 17 22 9 12 1016.3 1015.8 0.0
23/06:00pm 22.4 17.9 7.0 37 8.0 S 20 28 11 15 1016.2 1015.7 0.0
23/05:30pm 23.4 18.9 7.1 35 8.6 S 20 30 11 16 1015.8 1015.4 0.0
23/05:00pm 24.0 18.1 7.6 35 8.7 S 28 37 15 20 1015.5 1015.1 0.0
23/04:30pm 24.6 19.5 9.3 38 8.4 SSW 26 35 14 19 1015.1 1014.7 0.0
23/04:00pm 24.8 19.4 9.5 38 8.5 SSW 28 37 15 20 1015.1 1014.7 0.0
23/03:30pm 25.3 20.7 9.6 37 8.7 SSW 24 33 13 18 1015.0 1014.6 0.0
23/03:00pm 25.9 21.8 10.1 37 8.9 SSW 22 30 12 16 1015.1 1014.7 0.0
23/02:30pm 26.0 22.6 11.4 40 8.4 SSW 20 28 11 15 1015.2 1014.8 0.0
23/02:00pm 25.7 22.8 12.2 43 7.8 SSW 19 26 10 14 1015.3 1014.9 0.0
23/01:30pm 25.8 24.0 13.3 46 7.4 S 15 22 8 12 1015.5 1015.1 0.0
23/01:00pm 25.3 22.6 12.9 46 7.3 SSW 19 26 10 14 1016.0 1015.5 0.0
23/12:30pm 24.6 22.4 12.2 46 7.2 S 15 19 8 10 1016.3 1015.8 0.0
23/12:00pm 24.1 21.3 12.7 49 6.6 S 19 24 10 13 1016.7 1016.2 0.0
23/11:30am 23.5 20.7 13.1 52 6.1 S 20 26 11 14 1017.2 1016.8 0.0
23/11:00am 22.7 20.0 13.5 56 5.4 S 20 26 11 14 1017.5 1017.1 0.0
23/10:30am 22.4 19.1 12.9 55 5.5 SSW 22 28 12 15 1017.6 1017.2 0.0
23/10:00am 22.3 18.9 12.5 53 5.6 SSW 22 30 12 16 1017.6 1017.2 0.0
23/09:30am 22.4 20.5 14.3 60 4.8 SSW 17 24 9 13 1017.2 1016.8 0.0
23/09:00am 21.0 21.3 14.4 66 3.9 WNW 6 6 3 3 1016.6 1016.1 0.0
23/08:30am 18.9 19.3 14.8 77 2.4 WNW 6 7 3 4 1016.3 1015.8 0.0
23/08:00am 17.4 17.4 14.1 81 1.9 WNW 7 7 4 4 1016.3 1015.8 0.0
23/07:30am 16.4 15.7 13.3 82 1.8 WNW 9 11 5 6 1015.8 1015.4 0.0
23/07:00am 16.5 15.8 13.2 81 1.9 WNW 9 11 5 6 1015.5 1015.1 0.0
23/06:30am 16.9 16.6 13.4 80 2.0 W 7 9 4 5 1015.1 1014.7 0.0
23/06:00am 16.7 16.6 14.0 84 1.6 WSW 7 9 4 5 1014.8 1014.4 0.0
23/05:30am 16.5 16.1 14.0 85 1.4 W 9 9 5 5 1014.6 1014.2 0.0
23/05:00am 17.0 16.6 14.1 83 1.7 W 9 11 5 6 1014.4 1014.0 0.0
23/04:30am 17.2 16.9 14.5 84 1.6 W 9 13 5 7 1014.4 1014.0 0.0
23/04:00am 17.7 17.7 15.1 85 1.5 W 9 9 5 5 1014.5 1014.1 0.0
23/03:30am 18.0 18.7 15.6 86 1.4 W 6 9 3 5 1014.7 1014.3 0.0
23/03:00am 17.9 18.4 15.5 86 1.4 WSW 7 7 4 4 1014.6 1014.2 0.0
23/02:30am 18.6 19.3 15.7 83 1.7 WSW 6 7 3 4 1014.7 1014.3 0.0
23/02:00am 19.0 19.7 15.7 81 2.0 SSW 6 7 3 4 1014.8 1014.4 0.0
23/01:30am 18.9 19.6 16.0 83 1.7 SSW 7 9 4 5 1014.7 1014.3 0.0
23/01:00am 19.1 20.6 15.8 81 2.0 W 2 6 1 3 1014.6 1014.2 0.0
23/12:30am 19.7 20.5 16.3 81 2.1 W 7 9 4 5 1014.6 1014.2 0.0
23/12:00am 20.3 21.0 16.1 77 2.5 WNW 7 7 4 4 1014.7 1014.3 0.0
 
Date/Time
EST
Temp
°C
App
Temp
°C
Dew
Point
°C
Rel
Hum
%
Delta-T
°C
Wind Press
QNH
hPa
Press
MSL
hPa
Rain since
9am
mm
Dir  Spd
km/h
Gust
km/h
Spd
kts
Gust
kts
22/11:30pm 20.7 21.5 16.3 76 2.7 NW 7 9 4 5 1014.9 1014.5 0.0
22/11:00pm 21.2 21.6 16.2 73 3.0 WNW 9 9 5 5 1015.2 1014.8 0.0
22/10:30pm 21.3 21.8 16.5 74 2.9 W 9 11 5 6 1015.1 1014.7 0.0
22/10:00pm 21.5 22.1 16.7 74 3.0 WSW 9 11 5 6 1015.1 1014.7 0.0
22/09:30pm 22.1 22.8 17.0 73 3.2 W 9 9 5 5 1014.8 1014.4 0.0
22/09:00pm 22.4 23.6 17.3 73 3.2 WSW 7 9 4 5 1014.9 1014.5 0.0
22/08:30pm 23.0 24.3 17.0 69 3.7 WSW 6 7 3 4 1014.7 1014.3 0.0
22/08:00pm 23.6 24.7 17.1 67 4.1 WSW 7 7 4 4 1014.6 1014.2 0.0

Other Formats:

Comma delimited format used in spreadsheet applications
http://www.bom.gov.au/fwo/IDQ60801/IDQ60801.94338.axf

JavaScript Object Notation format (JSON) in row-major order
http://www.bom.gov.au/fwo/IDQ60801/IDQ60801.94338.json